createdAt,value
2023-04-16T00:00:48.338Z,64.18
2023-04-16T00:03:14.727Z,64.01
2023-04-16T00:05:41.153Z,64.62
2023-04-16T00:08:07.489Z,64.53
2023-04-16T00:10:33.810Z,64.88
2023-04-16T00:13:00.118Z,64.97
2023-04-16T00:15:26.434Z,64.96
2023-04-16T00:17:52.831Z,65.36
2023-04-16T00:20:19.208Z,64.76
2023-04-16T00:22:45.521Z,65.29
2023-04-16T00:25:11.843Z,65.55
2023-04-16T00:27:38.177Z,65.61
2023-04-16T00:30:04.506Z,66.20
2023-04-16T00:32:30.911Z,65.69
2023-04-16T00:34:57.255Z,65.33
2023-04-16T00:37:23.565Z,65.46
2023-04-16T00:39:49.877Z,66.26
2023-04-16T00:42:16.220Z,66.16
2023-04-16T00:44:42.529Z,65.88
2023-04-16T00:47:08.860Z,65.86
2023-04-16T00:49:35.200Z,66.09
2023-04-16T00:52:01.516Z,66.25
2023-04-16T00:54:27.813Z,66.02
2023-04-16T00:56:54.121Z,65.97
2023-04-16T00:59:20.454Z,66.28
2023-04-16T01:01:46.856Z,66.50
2023-04-16T01:04:13.347Z,66.63
2023-04-16T01:06:39.684Z,66.68
2023-04-16T01:09:05.997Z,66.63
2023-04-16T01:11:32.296Z,66.59
2023-04-16T01:13:58.628Z,66.91
2023-04-16T01:16:24.985Z,66.21
2023-04-16T01:18:51.397Z,66.09
2023-04-16T01:21:17.702Z,66.14
2023-04-16T01:23:44.025Z,66.55
2023-04-16T01:26:10.350Z,66.57
2023-04-16T01:28:36.677Z,66.29
2023-04-16T01:31:03.032Z,66.18
2023-04-16T01:33:29.374Z,66.37
2023-04-16T01:35:55.697Z,66.46
2023-04-16T01:38:22.013Z,66.12
2023-04-16T01:40:48.338Z,66.67
2023-04-16T01:43:14.703Z,65.83
2023-04-16T01:45:41.030Z,66.68
2023-04-16T01:48:07.357Z,66.36
2023-04-16T01:50:33.673Z,67.29
2023-04-16T01:52:59.981Z,67.38
2023-04-16T01:55:26.285Z,67.28
2023-04-16T01:57:52.606Z,67.32
2023-04-16T02:00:18.972Z,67.22
2023-04-16T02:02:45.446Z,67.01
2023-04-16T02:05:11.862Z,66.82
2023-04-16T02:07:38.220Z,67.60
2023-04-16T02:10:04.553Z,66.94
2023-04-16T02:12:30.869Z,67.40
2023-04-16T02:14:57.183Z,66.95
2023-04-16T02:17:23.511Z,66.78
2023-04-16T02:19:49.858Z,67.00
2023-04-16T02:22:16.193Z,66.50
2023-04-16T02:24:42.530Z,66.69
2023-04-16T02:27:08.861Z,66.34
2023-04-16T02:29:35.189Z,66.47
2023-04-16T02:32:01.559Z,66.83
2023-04-16T02:34:27.982Z,66.34
2023-04-16T02:36:54.289Z,66.29
2023-04-16T02:39:20.616Z,66.48
2023-04-16T02:41:46.937Z,66.19
2023-04-16T02:44:13.278Z,65.90
2023-04-16T02:46:39.592Z,67.07
2023-04-16T02:49:05.935Z,66.12
2023-04-16T02:51:32.252Z,66.60
2023-04-16T02:53:58.562Z,66.24
2023-04-16T02:56:24.882Z,65.97
2023-04-16T02:58:51.205Z,66.66
2023-04-16T03:01:17.557Z,66.83
2023-04-16T03:03:43.885Z,67.05
2023-04-16T03:06:10.199Z,67.10
2023-04-16T03:08:36.515Z,66.98
2023-04-16T03:11:02.835Z,67.32
2023-04-16T03:13:29.135Z,66.36
2023-04-16T03:15:55.473Z,66.85
2023-04-16T03:18:21.783Z,66.67
2023-04-16T03:20:48.082Z,67.17
2023-04-16T03:23:14.409Z,66.49
2023-04-16T03:25:40.741Z,65.79
2023-04-16T03:28:07.060Z,66.33
2023-04-16T03:30:33.388Z,66.90
2023-04-16T03:32:59.794Z,66.61
2023-04-16T03:35:26.115Z,67.09
2023-04-16T03:37:52.415Z,66.66
2023-04-16T03:40:18.729Z,67.06
2023-04-16T03:42:45.027Z,66.87
2023-04-16T03:45:11.348Z,66.65
2023-04-16T03:47:37.674Z,67.06
2023-04-16T03:50:04.019Z,66.57
2023-04-16T03:52:30.332Z,67.01
2023-04-16T03:54:56.647Z,66.42
2023-04-16T03:57:22.960Z,66.54
2023-04-16T03:59:49.276Z,66.33
2023-04-16T04:02:15.689Z,66.56
2023-04-16T04:04:42.208Z,66.34
2023-04-16T04:07:08.602Z,66.48
2023-04-16T04:09:34.921Z,66.09
2023-04-16T04:12:01.254Z,66.20
2023-04-16T04:14:27.573Z,65.87
2023-04-16T04:16:53.873Z,66.03
2023-04-16T04:19:20.191Z,66.23
2023-04-16T04:21:46.505Z,66.38
2023-04-16T04:24:12.807Z,65.94
2023-04-16T04:26:39.124Z,65.99
2023-04-16T04:29:05.445Z,66.73
2023-04-16T04:31:31.804Z,66.32
2023-04-16T04:33:58.142Z,66.08
2023-04-16T04:36:24.448Z,66.19
2023-04-16T04:38:50.767Z,65.93
2023-04-16T04:41:17.070Z,65.12
2023-04-16T04:43:43.402Z,65.29
2023-04-16T04:46:09.756Z,65.88
2023-04-16T04:48:36.121Z,65.11
2023-04-16T04:51:04.730Z,65.69
2023-04-16T04:53:31.445Z,65.98
2023-04-16T04:56:08.984Z,65.99
2023-04-16T04:58:38.332Z,65.77
2023-04-16T05:01:04.668Z,65.94
2023-04-16T05:03:31.089Z,66.13
2023-04-16T05:05:57.472Z,65.79
2023-04-16T05:08:23.802Z,65.68
2023-04-16T05:10:50.126Z,65.20
2023-04-16T05:13:16.450Z,65.47
2023-04-16T05:15:42.757Z,65.79
2023-04-16T05:18:09.088Z,65.25
2023-04-16T05:20:35.402Z,65.15
2023-04-16T05:23:01.725Z,64.63
2023-04-16T05:25:28.116Z,64.72
2023-04-16T05:27:54.449Z,64.44
2023-04-16T05:30:20.773Z,63.99
2023-04-16T05:32:47.110Z,64.37
2023-04-16T05:35:15.235Z,64.30
2023-04-16T05:37:43.090Z,64.66
2023-04-16T05:40:09.436Z,64.84
2023-04-16T05:42:35.745Z,65.27
2023-04-16T05:45:02.077Z,65.25
2023-04-16T05:47:28.411Z,65.57
2023-04-16T05:49:54.748Z,65.43
2023-04-16T05:52:21.058Z,65.05
2023-04-16T05:54:47.380Z,65.04
2023-04-16T05:57:13.697Z,64.55
2023-04-16T05:59:40.020Z,64.14
2023-04-16T06:02:06.383Z,63.84
2023-04-16T06:04:32.717Z,63.34
2023-04-16T06:06:59.028Z,63.66
2023-04-16T06:09:25.334Z,64.10
2023-04-16T06:11:51.644Z,64.21
2023-04-16T06:14:17.966Z,64.62
2023-04-16T06:16:44.302Z,64.00
2023-04-16T06:19:10.761Z,64.55
2023-04-16T06:21:37.212Z,64.50
2023-04-16T06:24:03.519Z,64.73
2023-04-16T06:26:29.829Z,64.14
2023-04-16T06:28:56.152Z,64.07
2023-04-16T06:31:22.506Z,63.57
2023-04-16T06:33:48.843Z,63.90
2023-04-16T06:36:15.155Z,63.81
2023-04-16T06:38:41.458Z,63.65
2023-04-16T06:41:07.784Z,63.93
2023-04-16T06:43:34.101Z,64.06
2023-04-16T06:46:00.426Z,64.16
2023-04-16T06:48:26.730Z,64.92
2023-04-16T06:50:53.043Z,64.17
2023-04-16T06:53:19.346Z,63.79
2023-04-16T06:55:45.677Z,64.01
2023-04-16T06:58:11.981Z,64.28
2023-04-16T07:00:38.363Z,63.29
2023-04-16T07:03:04.833Z,63.09
2023-04-16T07:05:31.284Z,63.38
2023-04-16T07:07:57.580Z,63.27
2023-04-16T07:10:23.918Z,63.61
2023-04-16T07:12:50.231Z,64.13
2023-04-16T07:15:16.558Z,63.09
2023-04-16T07:17:42.909Z,62.56
2023-04-16T07:20:09.230Z,62.42
2023-04-16T07:22:35.533Z,62.87
2023-04-16T07:25:01.868Z,62.68
2023-04-16T07:27:28.201Z,62.45
2023-04-16T07:29:54.528Z,62.64
2023-04-16T07:32:21.010Z,62.61
2023-04-16T07:34:47.461Z,62.71
2023-04-16T07:37:13.786Z,62.57
2023-04-16T07:39:40.113Z,62.11
2023-04-16T07:42:06.433Z,61.85
2023-04-16T07:44:32.745Z,61.83
2023-04-16T07:46:59.131Z,61.53
2023-04-16T07:49:25.463Z,61.06
2023-04-16T07:51:51.757Z,60.88
2023-04-16T07:54:18.076Z,59.82
2023-04-16T07:56:44.400Z,60.27
2023-04-16T07:59:22.089Z,59.30
2023-04-16T08:01:49.686Z,59.57
2023-04-16T08:04:16.229Z,60.65
2023-04-16T08:06:42.705Z,60.23
2023-04-16T08:09:09.334Z,59.36
2023-04-16T08:11:35.772Z,60.06
2023-04-16T08:14:02.073Z,59.85
2023-04-16T08:16:28.379Z,60.06
2023-04-16T08:18:54.711Z,60.29
2023-04-16T08:21:21.020Z,60.42
2023-04-16T08:23:47.327Z,58.25
2023-04-16T08:26:13.633Z,57.84
2023-04-16T08:28:39.952Z,57.69
2023-04-16T08:31:06.305Z,58.03
2023-04-16T08:33:32.624Z,58.64
2023-04-16T08:35:58.946Z,58.42
2023-04-16T08:38:25.255Z,59.09
2023-04-16T08:40:51.557Z,58.58
2023-04-16T08:43:17.847Z,58.42
2023-04-16T08:45:44.149Z,57.65
2023-04-16T08:48:10.509Z,57.94
2023-04-16T08:50:36.821Z,57.54
2023-04-16T08:53:03.138Z,57.75
2023-04-16T08:55:29.461Z,57.68
2023-04-16T08:57:55.777Z,56.84
2023-04-16T09:00:22.075Z,56.22
2023-04-16T09:02:48.589Z,55.61
2023-04-16T09:05:15.126Z,55.44
2023-04-16T09:07:41.453Z,56.49
2023-04-16T09:10:07.781Z,56.59
2023-04-16T09:12:34.085Z,57.10
2023-04-16T09:15:00.391Z,57.34
2023-04-16T09:17:26.746Z,57.00
2023-04-16T09:19:53.069Z,57.78
2023-04-16T09:22:19.378Z,57.53
2023-04-16T09:24:45.692Z,57.35
2023-04-16T09:27:12.021Z,54.70
2023-04-16T09:29:38.376Z,56.00
2023-04-16T09:32:04.837Z,55.69
2023-04-16T09:34:31.197Z,55.11
2023-04-16T09:36:57.515Z,54.73
2023-04-16T09:39:23.817Z,56.44
2023-04-16T09:41:50.169Z,56.41
2023-04-16T09:44:16.477Z,54.58
2023-04-16T09:46:42.790Z,55.65
2023-04-16T09:49:09.243Z,55.96
2023-04-16T09:51:35.755Z,56.15
2023-04-16T09:54:02.078Z,56.45
2023-04-16T09:56:28.399Z,56.29
2023-04-16T09:58:54.689Z,56.37
2023-04-16T10:01:21.047Z,55.27
2023-04-16T10:03:47.556Z,54.49
2023-04-16T10:06:14.014Z,54.89
2023-04-16T10:08:40.326Z,55.33
2023-04-16T10:11:06.632Z,54.76
2023-04-16T10:13:32.939Z,54.68
2023-04-16T10:15:59.242Z,55.07
2023-04-16T10:18:25.542Z,56.79
2023-04-16T10:20:51.842Z,55.78
2023-04-16T10:23:19.212Z,54.83
2023-04-16T10:25:45.533Z,54.29
2023-04-16T10:28:11.856Z,55.54
2023-04-16T10:30:38.212Z,54.33
2023-04-16T10:33:04.548Z,54.23
2023-04-16T10:35:30.910Z,54.57
2023-04-16T10:37:57.245Z,54.70
2023-04-16T10:40:23.551Z,55.16
2023-04-16T10:42:49.885Z,54.95
2023-04-16T10:45:16.223Z,54.65
2023-04-16T10:47:42.591Z,54.99
2023-04-16T10:50:08.928Z,54.85
2023-04-16T10:52:35.246Z,55.25
2023-04-16T10:55:01.560Z,55.90
2023-04-16T10:57:27.877Z,55.44
2023-04-16T10:59:54.185Z,55.47
2023-04-16T11:02:20.662Z,55.40
2023-04-16T11:04:47.475Z,55.16
2023-04-16T11:07:13.909Z,55.29
2023-04-16T11:09:40.230Z,55.22
2023-04-16T11:12:06.553Z,56.28
2023-04-16T11:14:32.863Z,55.46
2023-04-16T11:16:59.191Z,54.90
2023-04-16T11:19:25.500Z,55.00
2023-04-16T11:21:51.821Z,54.47
2023-04-16T11:24:18.125Z,53.41
2023-04-16T11:26:44.463Z,53.19
2023-04-16T11:29:11.061Z,54.29
2023-04-16T11:31:37.536Z,53.31
2023-04-16T11:34:03.851Z,52.45
2023-04-16T11:36:30.157Z,52.58
2023-04-16T11:38:56.486Z,52.46
2023-04-16T11:41:22.796Z,52.35
2023-04-16T11:43:49.106Z,53.45
2023-04-16T11:46:26.773Z,52.25
2023-04-16T11:48:53.946Z,52.70
2023-04-16T11:51:20.255Z,51.56
2023-04-16T11:53:46.560Z,52.12
2023-04-16T11:56:12.880Z,52.48
2023-04-16T11:58:42.403Z,52.01
2023-04-16T12:01:09.795Z,53.40
2023-04-16T12:03:36.334Z,52.30
2023-04-16T12:06:02.890Z,52.35
2023-04-16T12:08:29.211Z,53.27
2023-04-16T12:10:55.584Z,53.83
2023-04-16T12:13:21.926Z,54.19
2023-04-16T12:15:48.255Z,54.20
2023-04-16T12:18:14.573Z,53.23
2023-04-16T12:20:40.894Z,53.57
2023-04-16T12:23:07.203Z,53.18
2023-04-16T12:25:33.527Z,52.98
2023-04-16T12:27:59.859Z,53.08
2023-04-16T12:30:26.231Z,53.49
2023-04-16T12:32:52.841Z,53.17
2023-04-16T12:35:19.259Z,54.00
2023-04-16T12:37:45.576Z,54.05
2023-04-16T12:40:11.905Z,53.79
2023-04-16T12:42:38.222Z,53.75
2023-04-16T12:45:04.542Z,53.81
2023-04-16T12:47:30.896Z,53.03
2023-04-16T12:49:57.226Z,53.31
2023-04-16T12:52:23.873Z,53.44
2023-04-16T12:54:50.249Z,52.77
2023-04-16T12:57:16.580Z,52.81
2023-04-16T12:59:42.917Z,52.85
2023-04-16T13:02:09.329Z,52.62
2023-04-16T13:04:35.775Z,52.49
2023-04-16T13:07:02.117Z,53.75
2023-04-16T13:09:28.421Z,53.64
2023-04-16T13:11:54.734Z,52.75
2023-04-16T13:14:21.057Z,51.87
2023-04-16T13:16:47.368Z,51.56
2023-04-16T13:19:13.728Z,51.92
2023-04-16T13:21:40.130Z,52.03
2023-04-16T13:24:06.460Z,50.02
2023-04-16T13:26:32.768Z,49.31
2023-04-16T13:28:59.076Z,50.70
2023-04-16T13:31:25.463Z,49.96
2023-04-16T13:33:51.804Z,50.17
2023-04-16T13:36:18.133Z,50.22
2023-04-16T13:38:44.445Z,50.69
2023-04-16T13:41:10.763Z,51.27
2023-04-16T13:43:37.071Z,52.41
2023-04-16T13:46:03.391Z,51.17
2023-04-16T13:48:29.725Z,50.78
2023-04-16T13:50:56.066Z,51.00
2023-04-16T13:53:22.385Z,51.07
2023-04-16T13:55:48.698Z,50.67
2023-04-16T13:58:15.041Z,50.07
2023-04-16T14:00:41.364Z,50.08
2023-04-16T14:03:07.739Z,50.03
2023-04-16T14:05:34.094Z,50.82
2023-04-16T14:08:00.419Z,50.49
2023-04-16T14:10:26.741Z,50.56
2023-04-16T14:12:53.044Z,49.07
2023-04-16T14:15:19.372Z,48.97
2023-04-16T14:17:45.722Z,50.21
2023-04-16T14:20:12.081Z,49.27
2023-04-16T14:22:38.411Z,49.66
2023-04-16T14:25:04.750Z,50.24
2023-04-16T14:27:31.078Z,49.68
2023-04-16T14:29:57.381Z,50.50
2023-04-16T14:32:23.760Z,50.00
2023-04-16T14:34:50.083Z,49.16
2023-04-16T14:37:16.411Z,50.01
2023-04-16T14:39:42.713Z,49.98
2023-04-16T14:42:09.021Z,49.56
2023-04-16T14:44:35.333Z,49.65
2023-04-16T14:47:01.642Z,49.01
2023-04-16T14:49:27.979Z,49.20
2023-04-16T14:51:54.306Z,49.44
2023-04-16T14:54:20.630Z,49.80
2023-04-16T14:56:46.962Z,50.49
2023-04-16T14:59:13.285Z,50.81
2023-04-16T15:01:39.735Z,50.33
2023-04-16T15:04:06.305Z,50.13
2023-04-16T15:06:32.731Z,50.41
2023-04-16T15:08:59.064Z,51.30
2023-04-16T15:11:25.375Z,51.36
2023-04-16T15:13:51.684Z,51.16
2023-04-16T15:16:18.059Z,51.73
2023-04-16T15:18:44.386Z,52.39
2023-04-16T15:21:12.410Z,53.48
2023-04-16T15:23:39.076Z,53.30
2023-04-16T15:26:05.392Z,53.62
2023-04-16T15:28:31.730Z,54.05
2023-04-16T15:30:58.102Z,53.93
2023-04-16T15:33:24.449Z,54.08
2023-04-16T15:35:50.779Z,54.91
2023-04-16T15:38:17.098Z,55.79
2023-04-16T15:40:43.405Z,55.71
2023-04-16T15:43:09.737Z,54.15
2023-04-16T15:45:36.060Z,54.08
2023-04-16T15:48:02.437Z,54.73
2023-04-16T15:50:28.777Z,54.79
2023-04-16T15:52:55.100Z,54.66
2023-04-16T15:55:21.419Z,54.74
2023-04-16T15:57:47.740Z,55.07
2023-04-16T16:00:14.176Z,54.95
2023-04-16T16:02:40.806Z,55.23
2023-04-16T16:05:07.251Z,55.64
2023-04-16T16:07:33.570Z,54.66
2023-04-16T16:09:59.905Z,55.23
2023-04-16T16:12:26.218Z,54.88
2023-04-16T16:14:52.541Z,55.09
2023-04-16T16:17:18.897Z,55.55
2023-04-16T16:19:46.461Z,55.02
2023-04-16T16:22:12.982Z,54.72
2023-04-16T16:24:39.307Z,54.84
2023-04-16T16:27:05.635Z,55.17
2023-04-16T16:29:31.952Z,54.41
2023-04-16T16:31:58.329Z,54.77
2023-04-16T16:34:24.674Z,54.28
2023-04-16T16:36:51.037Z,54.75
2023-04-16T16:39:17.356Z,54.84
2023-04-16T16:41:43.673Z,54.00
2023-04-16T16:44:09.997Z,54.39
2023-04-16T16:46:36.320Z,54.63
2023-04-16T16:49:02.681Z,54.21
2023-04-16T16:51:29.013Z,54.54
2023-04-16T16:53:55.329Z,54.94
2023-04-16T16:56:21.659Z,54.78
2023-04-16T16:58:47.974Z,55.28
2023-04-16T17:01:14.376Z,55.55
2023-04-16T17:03:40.850Z,56.04
2023-04-16T17:06:07.177Z,56.22
2023-04-16T17:08:33.485Z,56.23
2023-04-16T17:10:59.813Z,56.09
2023-04-16T17:13:26.132Z,56.13
2023-04-16T17:15:52.447Z,56.18
2023-04-16T17:18:18.776Z,56.32
2023-04-16T17:20:45.094Z,56.54
2023-04-16T17:23:11.418Z,56.73
2023-04-16T17:25:37.754Z,56.61
2023-04-16T17:28:04.068Z,56.62
2023-04-16T17:30:30.389Z,56.91
2023-04-16T17:32:56.733Z,56.60
2023-04-16T17:35:23.116Z,57.30
2023-04-16T17:37:49.436Z,56.99
2023-04-16T17:40:15.758Z,57.35
2023-04-16T17:42:42.076Z,58.10
2023-04-16T17:45:08.393Z,58.34
2023-04-16T17:47:34.718Z,58.41
2023-04-16T17:50:01.037Z,58.61
2023-04-16T17:52:27.352Z,58.79
2023-04-16T17:54:53.659Z,57.83
2023-04-16T17:57:19.962Z,57.30
2023-04-16T17:59:46.288Z,56.85
2023-04-16T18:02:12.702Z,56.62
2023-04-16T18:04:39.191Z,56.46
2023-04-16T18:07:05.573Z,56.66
2023-04-16T18:09:31.907Z,56.45
2023-04-16T18:11:58.213Z,57.08
2023-04-16T18:14:24.518Z,57.27
2023-04-16T18:16:50.856Z,57.69
2023-04-16T18:19:17.189Z,57.04
2023-04-16T18:21:43.503Z,56.90
2023-04-16T18:24:10.036Z,56.71
2023-04-16T18:26:37.425Z,57.00
2023-04-16T18:29:04.112Z,57.26
2023-04-16T18:31:30.535Z,57.30
2023-04-16T18:33:58.397Z,57.86
2023-04-16T18:36:24.993Z,58.32
2023-04-16T18:39:00.802Z,58.11
2023-04-16T18:41:28.336Z,58.17
2023-04-16T18:43:54.707Z,58.69
2023-04-16T18:46:21.073Z,58.39
2023-04-16T18:48:47.411Z,58.39
2023-04-16T18:51:15.449Z,58.99
2023-04-16T18:53:42.559Z,59.31
2023-04-16T18:56:08.891Z,59.17
2023-04-16T18:58:35.221Z,59.30
2023-04-16T19:01:01.572Z,59.68
2023-04-16T19:03:28.059Z,59.57
2023-04-16T19:05:54.393Z,59.54
2023-04-16T19:08:20.731Z,60.03
2023-04-16T19:10:47.052Z,60.17
2023-04-16T19:13:13.372Z,59.98
2023-04-16T19:15:39.686Z,60.01
2023-04-16T19:18:06.011Z,59.81
2023-04-16T19:20:32.327Z,59.64
2023-04-16T19:22:58.640Z,59.43
2023-04-16T19:25:24.944Z,60.04
2023-04-16T19:27:51.280Z,59.36
2023-04-16T19:30:17.629Z,59.37
2023-04-16T19:32:43.977Z,58.82
2023-04-16T19:35:10.289Z,59.07
2023-04-16T19:37:36.616Z,58.69
2023-04-16T19:40:02.935Z,58.77
2023-04-16T19:42:29.247Z,58.50
2023-04-16T19:44:55.567Z,58.72
2023-04-16T19:47:21.909Z,58.41
2023-04-16T19:49:48.225Z,58.80
2023-04-16T19:52:14.522Z,59.41
2023-04-16T19:54:40.845Z,59.66
2023-04-16T19:57:07.149Z,59.10
2023-04-16T19:59:33.452Z,59.93
2023-04-16T20:01:59.803Z,59.91
2023-04-16T20:04:26.170Z,59.67
2023-04-16T20:06:52.505Z,59.63
2023-04-16T20:09:18.820Z,59.23
2023-04-16T20:11:45.121Z,59.71
2023-04-16T20:14:11.436Z,59.60
2023-04-16T20:16:37.785Z,60.20
2023-04-16T20:19:06.461Z,59.60
2023-04-16T20:21:34.379Z,59.97
2023-04-16T20:24:00.713Z,60.08
2023-04-16T20:26:27.028Z,60.95
2023-04-16T20:28:53.337Z,60.02
2023-04-16T20:31:19.710Z,60.13
2023-04-16T20:33:46.054Z,60.39
2023-04-16T20:36:12.375Z,60.28
2023-04-16T20:38:38.681Z,61.24
2023-04-16T20:41:05.002Z,61.08
2023-04-16T20:43:31.322Z,61.03
2023-04-16T20:45:57.699Z,61.44
2023-04-16T20:48:24.048Z,61.39
2023-04-16T20:50:50.408Z,62.61
2023-04-16T20:53:16.728Z,61.61
2023-04-16T20:55:43.063Z,61.25
2023-04-16T20:58:09.378Z,61.17
2023-04-16T21:00:35.702Z,60.83
2023-04-16T21:03:02.175Z,60.29
2023-04-16T21:05:28.580Z,60.93
2023-04-16T21:07:55.935Z,61.36
2023-04-16T21:10:22.299Z,60.91
2023-04-16T21:12:48.608Z,61.19
2023-04-16T21:15:14.926Z,61.00
2023-04-16T21:17:41.285Z,61.31
2023-04-16T21:20:07.661Z,60.73
2023-04-16T21:22:33.993Z,61.33
2023-04-16T21:25:00.302Z,61.33
2023-04-16T21:27:26.627Z,61.37
2023-04-16T21:29:52.958Z,61.74
2023-04-16T21:32:19.280Z,61.64
2023-04-16T21:34:45.583Z,61.83
2023-04-16T21:37:11.900Z,62.38
2023-04-16T21:39:38.478Z,62.54
2023-04-16T21:42:04.793Z,61.94
2023-04-16T21:44:31.111Z,62.12
2023-04-16T21:46:57.463Z,62.07
2023-04-16T21:49:23.816Z,61.21
2023-04-16T21:51:50.109Z,61.22
2023-04-16T21:54:16.428Z,61.23
2023-04-16T21:56:42.727Z,61.12
2023-04-16T21:59:09.186Z,60.62
2023-04-16T22:01:35.621Z,60.86
2023-04-16T22:04:02.064Z,60.97
2023-04-16T22:06:28.439Z,60.90
2023-04-16T22:08:54.764Z,61.24
2023-04-16T22:11:21.081Z,61.36
2023-04-16T22:13:47.380Z,60.88
2023-04-16T22:16:13.824Z,61.16
2023-04-16T22:18:40.182Z,60.65
2023-04-16T22:21:06.485Z,60.74
2023-04-16T22:23:32.809Z,61.53
2023-04-16T22:25:59.116Z,60.61
2023-04-16T22:28:25.439Z,60.92
2023-04-16T22:30:51.773Z,61.51
2023-04-16T22:33:18.193Z,61.28
2023-04-16T22:35:44.649Z,61.94
2023-04-16T22:38:10.988Z,62.13
2023-04-16T22:40:37.343Z,62.30
2023-04-16T22:43:03.714Z,62.75
2023-04-16T22:45:30.048Z,62.95
2023-04-16T22:47:56.404Z,63.39
2023-04-16T22:50:22.753Z,63.26
2023-04-16T22:52:49.087Z,63.09
2023-04-16T22:55:15.409Z,63.16
2023-04-16T22:57:41.724Z,62.47
2023-04-16T23:00:08.065Z,62.40
2023-04-16T23:02:34.469Z,62.54
2023-04-16T23:05:00.880Z,62.23
2023-04-16T23:07:27.186Z,62.40
2023-04-16T23:09:53.509Z,61.65
2023-04-16T23:12:19.827Z,61.54
2023-04-16T23:14:46.218Z,61.55
2023-04-16T23:17:12.541Z,61.83
2023-04-16T23:19:38.855Z,61.46
2023-04-16T23:22:05.161Z,61.18
2023-04-16T23:24:31.486Z,61.09
2023-04-16T23:26:57.808Z,61.47
2023-04-16T23:29:24.148Z,62.08
2023-04-16T23:31:50.549Z,61.24
2023-04-16T23:34:17.028Z,61.75
2023-04-16T23:36:43.365Z,62.08
2023-04-16T23:39:09.896Z,61.66
2023-04-16T23:41:36.401Z,61.01
2023-04-16T23:44:02.722Z,61.41
2023-04-16T23:46:29.092Z,61.23
2023-04-16T23:48:55.502Z,61.26
2023-04-16T23:51:21.824Z,61.90
2023-04-16T23:53:48.140Z,61.42
2023-04-16T23:56:14.464Z,62.07
2023-04-16T23:58:40.790Z,61.92
